Time;durP1;ratioP1;P1;durP2;ratioP2;P2;SDS_P1;SDS_P2;PMS_P1;PMS_P2;Temp;Humidity;BMP_temperature;BMP_pressure;BME280_temperature;BME280_humidity;BME280_pressure;Samples;Min_cycle;Max_cycle;Signal;HPM_P1;HPM_P2
2023/05/15 00:02:22;;;;;;;19.77;13.85;;;;;;;16.41;54.46;101426.88;5010338;28;114245;-69
2023/05/15 00:04:50;;;;;;;18.70;13.85;;;;;;;16.37;54.43;101428.03;5010550;28;124070;-69
2023/05/15 00:07:17;;;;;;;21.33;14.05;;;;;;;16.35;54.56;101429.94;5008379;28;123769;-70
2023/05/15 00:09:44;;;;;;;22.77;14.05;;;;;;;16.31;54.67;101428.38;5028597;28;114144;-69
2023/05/15 00:12:11;;;;;;;20.75;13.70;;;;;;;16.26;54.61;101425.16;5006629;28;114886;-70
2023/05/15 00:14:38;;;;;;;22.45;14.27;;;;;;;16.22;54.74;101418.22;5016724;28;123872;-70
2023/05/15 00:17:06;;;;;;;19.70;13.77;;;;;;;16.17;54.77;101412.31;5016412;27;124423;-70
2023/05/15 00:19:33;;;;;;;20.38;13.75;;;;;;;16.13;54.84;101409.81;5011040;28;115560;-69
2023/05/15 00:22:00;;;;;;;23.08;14.55;;;;;;;16.10;54.95;101407.31;5008602;28;115710;-70
2023/05/15 00:24:28;;;;;;;20.85;14.10;;;;;;;16.06;54.86;101408.47;5013194;28;124656;-70
2023/05/15 00:26:55;;;;;;;23.13;14.50;;;;;;;16.05;55.06;101406.75;4981987;28;125179;-70
2023/05/15 00:29:22;;;;;;;21.50;14.52;;;;;;;16.03;55.13;101403.31;4997361;28;113520;-69
2023/05/15 00:31:50;;;;;;;25.70;14.05;;;;;;;16.01;55.03;101405.22;4996593;28;113068;-69
2023/05/15 00:34:17;;;;;;;23.15;13.73;;;;;;;15.98;55.13;101405.38;5013518;28;124048;-69
2023/05/15 00:36:44;;;;;;;21.25;14.60;;;;;;;15.98;55.10;101404.53;5014086;28;123538;-70
2023/05/15 00:39:11;;;;;;;21.88;13.90;;;;;;;15.95;55.07;101394.88;4994426;28;114308;-69
2023/05/15 00:41:40;;;;;;;21.75;13.88;;;;;;;15.93;55.29;101402.13;4995369;28;112912;-69
2023/05/15 00:44:09;;;;;;;17.77;13.07;;;;;;;15.89;55.34;101395.25;4996244;28;123277;-69
2023/05/15 00:46:37;;;;;;;22.42;13.95;;;;;;;15.87;55.46;101402.50;5017541;28;125831;-70
2023/05/15 00:49:05;;;;;;;22.52;13.23;;;;;;;15.86;55.48;101390.06;4994313;28;113959;-69
2023/05/15 00:51:34;;;;;;;19.48;12.65;;;;;;;15.84;55.49;101391.97;5010667;28;114646;-69
2023/05/15 00:54:01;;;;;;;20.30;13.18;;;;;;;15.84;55.57;101391.97;4990854;28;123570;-69
2023/05/15 00:56:29;;;;;;;18.15;13.13;;;;;;;15.82;55.58;101393.88;4993325;28;123487;-70
2023/05/15 00:58:58;;;;;;;22.55;13.32;;;;;;;15.80;55.62;101379.75;5007507;28;114141;-70
2023/05/15 01:01:25;;;;;;;21.95;12.63;;;;;;;15.77;55.61;101378.97;4967330;28;115399;-69
2023/05/15 01:03:53;;;;;;;19.55;13.18;;;;;;;15.77;55.62;101381.66;4978313;28;123153;-68
2023/05/15 01:06:20;;;;;;;18.27;13.15;;;;;;;15.76;55.63;101377.28;5009572;28;124586;-68
2023/05/15 01:08:48;;;;;;;20.65;13.35;;;;;;;15.74;55.81;101379.16;4992060;28;114961;-69
2023/05/15 01:11:16;;;;;;;19.67;13.23;;;;;;;15.72;55.77;101378.34;4992671;28;114057;-68
2023/05/15 01:13:45;;;;;;;18.55;12.82;;;;;;;15.71;55.69;101382.00;5010107;28;124278;-69
2023/05/15 01:16:12;;;;;;;20.45;13.20;;;;;;;15.69;55.80;101383.88;5009803;28;123534;-68
2023/05/15 01:18:39;;;;;;;22.40;13.27;;;;;;;15.64;55.76;101380.63;5015927;28;114275;-69
2023/05/15 01:21:09;;;;;;;22.10;13.50;;;;;;;15.61;56.01;101386.13;4981413;28;113266;-69
2023/05/15 01:24:07;;;;;;;21.63;14.00;;;;;;;15.58;56.03;101383.66;4982583;28;122108;-68
2023/05/15 01:27:02;;;;;;;18.63;12.63;;;;;;;15.54;55.93;101390.13;4999280;28;122955;-69
2023/05/15 01:29:36;;;;;;;20.80;13.85;;;;;;;15.50;55.84;101393.88;5013475;28;113950;-68
2023/05/15 01:32:09;;;;;;;;;;;;;;;15.45;55.34;101390.63;4992011;28;114167;-68
2023/05/15 01:34:51;;;;;;;21.42;13.32;;;;;;;15.43;55.80;101387.19;4997786;28;123206;-68
2023/05/15 01:37:24;;;;;;;20.23;13.25;;;;;;;15.40;56.10;101371.34;4972528;28;123661;-69
2023/05/15 01:40:01;;;;;;;24.42;14.07;;;;;;;15.38;56.11;101380.28;4997942;28;113205;-69
2023/05/15 01:42:33;;;;;;;22.45;14.18;;;;;;;15.37;56.32;101375.91;4975383;28;113260;-69
2023/05/15 01:45:04;;;;;;;26.35;14.57;;;;;;;15.36;56.42;101370.66;4997438;28;122948;-69
2023/05/15 01:47:42;;;;;;;25.85;15.25;;;;;;;15.35;56.35;101375.13;5000925;28;122813;-69
2023/05/15 01:50:13;;;;;;;22.00;14.50;;;;;;;15.34;56.49;101373.41;4982847;28;113338;-69
2023/05/15 01:52:45;;;;;;;25.52;15.20;;;;;;;15.35;56.63;101375.13;5015206;28;114339;-69
2023/05/15 01:55:14;;;;;;;23.83;15.00;;;;;;;15.34;56.63;101373.41;5023814;28;124582;-68
2023/05/15 01:57:42;;;;;;;23.27;15.30;;;;;;;15.34;56.42;101373.41;5002715;28;123692;-69
2023/05/15 02:00:10;;;;;;;22.02;15.40;;;;;;;15.35;56.64;101379.59;5014607;28;116147;-69
2023/05/15 02:02:42;;;;;;;23.13;15.25;;;;;;;15.32;56.66;101369.97;5013219;28;115297;-68
2023/05/15 02:05:11;;;;;;;25.13;15.77;;;;;;;15.32;56.60;101369.13;4982778;28;124150;-69
2023/05/15 02:07:41;;;;;;;23.45;14.88;;;;;;;15.30;56.69;101366.53;5007376;28;124461;-69
2023/05/15 02:10:10;;;;;;;24.35;15.73;;;;;;;15.29;56.84;101359.44;4994874;28;113926;-69
2023/05/15 02:12:40;;;;;;;23.92;15.32;;;;;;;15.29;56.69;101359.44;4997966;28;112862;-68
2023/05/15 02:15:09;;;;;;;25.83;15.73;;;;;;;15.29;56.77;101354.13;5009239;28;124485;-69
2023/05/15 02:17:36;;;;;;;23.40;15.27;;;;;;;15.28;56.63;101365.75;5014049;28;123988;-69
2023/05/15 02:20:06;;;;;;;24.30;15.80;;;;;;;15.26;56.61;101364.97;4992778;28;113340;-68
2023/05/15 02:22:33;;;;;;;25.40;16.48;;;;;;;15.25;56.70;101371.25;5003132;28;113045;-68
2023/05/15 02:25:01;;;;;;;28.15;16.63;;;;;;;15.24;56.67;101361.53;4970403;28;122788;-69
2023/05/15 02:27:56;;;;;;;28.20;17.27;;;;;;;15.23;56.88;101370.47;4997537;28;124095;-68
2023/05/15 02:30:45;;;;;;;24.70;16.10;;;;;;;15.21;56.69;101367.03;5011794;28;114521;-68
2023/05/15 02:33:47;;;;;;;28.83;17.13;;;;;;;15.18;56.58;101357.41;5015428;28;114225;-69
2023/05/15 02:36:24;;;;;;;25.30;16.88;;;;;;;15.14;56.69;101365.66;4968470;28;123725;-68
2023/05/15 02:38:52;;;;;;;28.88;17.52;;;;;;;15.10;56.64;101369.44;4994806;28;122647;-69
2023/05/15 02:41:21;;;;;;;31.10;18.88;;;;;;;15.07;56.63;101364.28;4997735;28;113674;-68
2023/05/15 02:43:54;;;;;;;29.60;19.10;;;;;;;15.04;57.00;101357.31;5013040;28;114320;-71
2023/05/15 02:46:23;;;;;;;34.33;20.10;;;;;;;15.03;56.79;101362.72;4991865;28;125123;-69
2023/05/15 02:48:53;;;;;;;37.75;20.25;;;;;;;14.99;56.87;101357.56;5017654;28;124530;-70
2023/05/15 02:51:20;;;;;;;34.13;20.63;;;;;;;14.96;57.05;101352.41;5014171;28;115091;-70
2023/05/15 02:53:48;;;;;;;33.03;20.02;;;;;;;14.95;56.90;101361.34;5016243;28;115150;-69
2023/05/15 02:56:15;;;;;;;28.85;19.88;;;;;;;14.95;56.96;101353.34;5009170;28;123900;-69
2023/05/15 02:58:42;;;;;;;32.38;19.90;;;;;;;14.94;56.91;101348.97;4997882;28;122928;-69
2023/05/15 03:01:09;;;;;;;34.70;21.98;;;;;;;14.93;57.11;101352.56;4985270;28;114723;-69
2023/05/15 03:03:36;;;;;;;32.92;20.83;;;;;;;14.92;57.12;101353.53;5015753;28;114103;-69
2023/05/15 03:06:04;;;;;;;33.35;20.27;;;;;;;14.92;57.05;101350.00;5003657;28;123006;-69
2023/05/15 03:08:31;;;;;;;29.35;20.33;;;;;;;14.90;57.09;101358.09;4994631;28;122810;-69
2023/05/15 03:10:58;;;;;;;35.35;21.42;;;;;;;14.87;56.95;101352.91;4995967;28;113573;-69
2023/05/15 03:13:25;;;;;;;39.65;21.75;;;;;;;14.85;56.98;101364.63;4983317;28;113711;-70
2023/05/15 03:15:52;;;;;;;34.70;22.00;;;;;;;14.79;57.17;101365.81;4983828;28;124730;-69
2023/05/15 03:18:19;;;;;;;34.60;22.45;;;;;;;14.75;57.18;101361.59;5012173;28;123986;-69
2023/05/15 03:20:48;;;;;;;38.72;23.80;;;;;;;14.72;57.31;101364.41;4997812;28;113777;-70
2023/05/15 03:23:15;;;;;;;38.10;23.42;;;;;;;14.69;57.38;101367.22;4993979;28;113003;-69
2023/05/15 03:25:42;;;;;;;38.72;24.30;;;;;;;14.67;57.34;101367.31;4992240;28;123243;-69
2023/05/15 03:28:10;;;;;;;41.13;24.85;;;;;;;14.66;57.28;101360.28;4997217;28;123873;-70
2023/05/15 03:30:37;;;;;;;44.33;26.30;;;;;;;14.64;57.54;101355.97;5006304;28;114277;-69
2023/05/15 03:33:05;;;;;;;45.75;27.30;;;;;;;14.59;57.53;101354.41;5012654;28;114130;-70
2023/05/15 03:35:32;;;;;;;43.92;27.70;;;;;;;14.57;57.82;101361.63;4997837;28;124313;-70
2023/05/15 03:38:00;;;;;;;49.33;28.17;;;;;;;14.57;57.87;101360.75;4986357;28;124347;-69
2023/05/15 03:40:27;;;;;;;48.65;30.02;;;;;;;14.56;57.98;101359.00;5013096;28;116378;-69
2023/05/15 03:42:54;;;;;;;51.45;29.58;;;;;;;14.56;58.01;101353.66;5015922;28;114958;-69
2023/05/15 03:45:21;;;;;;;53.38;30.38;;;;;;;14.54;58.03;101356.44;4997708;28;123083;-69
2023/05/15 03:47:49;;;;;;;51.03;30.05;;;;;;;14.54;58.09;101345.78;4997465;28;123677;-70
2023/05/15 03:50:16;;;;;;;51.38;31.23;;;;;;;14.53;57.94;101354.69;5020483;28;113877;-69
2023/05/15 03:52:44;;;;;;;53.63;32.13;;;;;;;14.53;58.31;101360.03;5012810;28;114546;-69
2023/05/15 03:55:11;;;;;;;59.40;30.25;;;;;;;14.54;58.32;101361.78;4997332;28;123984;-69
2023/05/15 03:57:40;;;;;;;53.10;29.45;;;;;;;14.53;58.49;101354.69;5000228;28;123543;-70
2023/05/15 04:00:09;;;;;;;58.17;29.95;;;;;;;14.51;58.57;101366.41;4996852;28;113357;-70
2023/05/15 04:02:39;;;;;;;57.33;29.05;;;;;;;14.51;58.49;101356.59;5013701;28;113316;-70
2023/05/15 04:05:08;;;;;;;54.42;27.40;;;;;;;14.50;58.68;101360.19;5020978;28;124667;-70
2023/05/15 04:07:36;;;;;;;52.72;27.23;;;;;;;14.49;58.72;101352.28;5012863;28;123928;-69
2023/05/15 04:10:03;;;;;;;48.53;27.27;;;;;;;14.48;58.88;101361.22;5015185;28;113844;-70
2023/05/15 04:12:32;;;;;;;52.70;28.38;;;;;;;14.47;58.75;101360.38;5017735;28;114728;-69
2023/05/15 04:15:19;;;;;;;57.33;28.38;;;;;;;14.45;58.57;101356.94;5020505;28;126581;-70
2023/05/15 04:17:48;;;;;;;57.25;29.23;;;;;;;14.44;58.79;101357.84;5012125;28;124924;-69
2023/05/15 04:20:17;;;;;;;54.83;28.80;;;;;;;14.43;58.86;101358.81;5015533;28;114192;-69
2023/05/15 04:22:44;;;;;;;63.45;31.02;;;;;;;14.42;58.69;101359.75;5016108;28;115012;-69
2023/05/15 04:25:13;;;;;;;61.90;29.73;;;;;;;14.40;58.80;101358.97;5010785;28;124199;-69
2023/05/15 04:27:41;;;;;;;57.08;29.23;;;;;;;14.41;58.84;101366.03;4984285;28;122648;-69
2023/05/15 04:30:09;;;;;;;55.65;29.77;;;;;;;14.42;58.94;101362.41;5023393;28;114936;-69
2023/05/15 04:32:37;;;;;;;57.83;29.77;;;;;;;14.45;58.91;101356.94;4990169;28;115140;-69
2023/05/15 04:35:08;;;;;;;51.78;28.60;;;;;;;14.46;58.96;101350.63;5020417;28;124703;-69
2023/05/15 04:37:37;;;;;;;51.67;28.00;;;;;;;14.48;59.04;101354.06;5015103;28;123576;-69
2023/05/15 04:40:07;;;;;;;56.58;28.88;;;;;;;14.51;58.95;101351.25;5016837;28;114057;-69
2023/05/15 04:42:35;;;;;;;56.05;28.38;;;;;;;14.53;58.87;101344.03;4996911;28;112859;-69
2023/05/15 04:45:05;;;;;;;53.40;27.70;;;;;;;14.58;58.80;101358.03;5009082;28;126413;-69
2023/05/15 04:47:33;;;;;;;55.95;28.35;;;;;;;14.65;59.12;101357.69;4979519;28;124755;-69
2023/05/15 04:50:00;;;;;;;54.95;28.10;;;;;;;14.71;58.86;101362.69;4976232;28;116349;-69
2023/05/15 04:52:27;;;;;;;51.92;27.85;;;;;;;14.75;58.86;101370.44;5006901;28;113998;-69
2023/05/15 04:54:54;;;;;;;50.80;27.95;;;;;;;14.81;58.82;101373.72;4987814;28;124202;-69
2023/05/15 04:57:22;;;;;;;53.03;28.50;;;;;;;14.85;58.78;101381.47;5000868;28;123691;-69
2023/05/15 04:59:49;;;;;;;54.15;29.13;;;;;;;14.87;58.82;101390.25;5018911;28;114327;-69
2023/05/15 05:02:21;;;;;;;49.22;26.48;;;;;;;14.91;58.85;101390.94;5000654;28;113360;-69
2023/05/15 05:04:48;;;;;;;54.47;28.58;;;;;;;14.93;58.95;101384.56;5020912;28;124003;-69
2023/05/15 05:07:16;;;;;;;52.03;28.27;;;;;;;14.97;58.87;101394.16;5016661;28;124673;-69
2023/05/15 05:09:43;;;;;;;50.80;27.13;;;;;;;14.98;58.98;101390.53;5020738;28;114411;-69
2023/05/15 05:12:10;;;;;;;53.83;28.05;;;;;;;15.01;58.75;101391.28;5029815;28;113937;-69
2023/05/15 05:14:39;;;;;;;46.30;26.13;;;;;;;15.02;59.05;101398.38;5000459;28;123808;-69
2023/05/15 05:17:06;;;;;;;50.88;27.77;;;;;;;15.03;58.82;101400.06;5022452;28;124212;-69
2023/05/15 05:19:34;;;;;;;59.88;31.25;;;;;;;15.05;58.79;101414.19;5014613;28;115097;-69
2023/05/15 05:22:04;;;;;;;59.88;32.00;;;;;;;15.07;58.79;101406.97;5017645;28;114539;-69
2023/05/15 05:24:31;;;;;;;62.45;32.90;;;;;;;15.05;58.67;101420.41;4981059;28;124840;-72
2023/05/15 05:26:59;;;;;;;58.55;32.47;;;;;;;15.04;58.54;101423.16;5012520;28;124018;-70
2023/05/15 05:29:26;;;;;;;57.45;30.92;;;;;;;14.98;58.41;101411.84;5021993;28;114811;-70
2023/05/15 05:31:53;;;;;;;57.17;30.67;;;;;;;14.94;58.31;101415.66;5010942;28;114697;-69
2023/05/15 05:34:21;;;;;;;52.30;28.92;;;;;;;14.92;58.22;101424.69;5013384;28;123778;-69
2023/05/15 05:36:48;;;;;;;51.10;29.20;;;;;;;14.89;58.17;101420.34;5016862;28;124167;-69
2023/05/15 05:39:16;;;;;;;50.60;28.77;;;;;;;14.87;58.13;101411.56;5014127;28;115117;-69
2023/05/15 05:41:44;;;;;;;52.88;29.33;;;;;;;14.86;58.10;101415.22;5002885;28;113934;-70
2023/05/15 05:44:11;;;;;;;53.00;28.95;;;;;;;14.88;58.19;101423.09;4995357;28;124337;-69
2023/05/15 05:46:38;;;;;;;54.00;29.67;;;;;;;14.86;57.92;101420.53;5017561;28;124172;-70
2023/05/15 05:49:05;;;;;;;48.60;27.63;;;;;;;14.86;57.94;101420.53;5019805;28;114801;-70
2023/05/15 05:51:37;;;;;;;49.75;28.80;;;;;;;14.85;57.92;101417.94;4981448;28;113345;-71
2023/05/15 05:54:05;;;;;;;53.17;29.00;;;;;;;14.85;58.04;101429.47;5008056;28;123962;-70
2023/05/15 05:56:32;;;;;;;52.22;29.08;;;;;;;14.86;57.91;101430.31;5016649;28;125515;-70
2023/05/15 05:59:00;;;;;;;53.60;28.63;;;;;;;14.87;58.11;101427.59;5012520;28;115128;-71
2023/05/15 06:01:28;;;;;;;51.53;28.35;;;;;;;14.90;58.03;101422.09;5010251;28;114432;-70
2023/05/15 06:03:56;;;;;;;51.08;29.98;;;;;;;14.95;58.24;101425.34;5002661;28;124627;-70
2023/05/15 06:06:23;;;;;;;53.30;29.27;;;;;;;15.01;58.09;101424.16;5005898;28;124342;-70
2023/05/15 06:08:50;;;;;;;48.80;29.55;;;;;;;15.09;58.24;101415.75;5012074;28;115327;-70
2023/05/15 06:11:21;;;;;;;48.10;28.63;;;;;;;15.14;58.11;101413.69;5003825;28;114894;-70
2023/05/15 06:13:51;;;;;;;44.28;27.02;;;;;;;15.21;58.18;101415.06;5011283;27;124991;-71
2023/05/15 06:16:18;;;;;;;48.55;27.70;;;;;;;15.28;57.58;101416.47;5008802;28;125431;-70
2023/05/15 06:18:46;;;;;;;47.88;27.48;;;;;;;15.33;57.87;101418.84;5009415;28;114406;-71
2023/05/15 06:21:13;;;;;;;45.17;27.08;;;;;;;15.38;57.80;101412.31;5008557;28;115048;-72
2023/05/15 06:23:40;;;;;;;43.92;26.23;;;;;;;15.45;57.68;101422.66;5012733;28;124046;-71
2023/05/15 06:26:07;;;;;;;44.72;26.52;;;;;;;15.52;57.45;101424.03;4995831;28;123591;-70
2023/05/15 06:28:34;;;;;;;42.92;26.33;;;;;;;15.59;57.47;101425.41;5032747;28;114544;-70
2023/05/15 06:31:01;;;;;;;41.85;26.92;;;;;;;15.69;57.30;101423.94;5019439;28;116265;-70
2023/05/15 06:33:28;;;;;;;41.75;25.73;;;;;;;15.81;57.57;101424.22;4998774;28;125174;-70
2023/05/15 06:35:56;;;;;;;42.55;26.58;;;;;;;15.93;57.53;101418.16;5020025;28;125224;-71
2023/05/15 06:38:23;;;;;;;41.17;25.60;;;;;;;16.06;57.15;101419.16;4971633;28;113481;-71
2023/05/15 06:40:50;;;;;;;39.20;24.90;;;;;;;16.18;56.88;101414.03;5017630;28;114047;-70
2023/05/15 06:43:17;;;;;;;42.38;26.17;;;;;;;16.26;56.60;101414.44;5010327;28;124156;-71
2023/05/15 06:45:44;;;;;;;37.70;24.60;;;;;;;16.35;56.62;101419.25;5007837;28;124679;-70
2023/05/15 06:48:11;;;;;;;41.53;24.17;;;;;;;16.44;56.37;101413.31;4997478;28;114963;-71
2023/05/15 06:50:39;;;;;;;39.95;25.23;;;;;;;16.57;56.09;101412.59;4979280;28;113981;-71
2023/05/15 06:53:06;;;;;;;35.40;23.75;;;;;;;16.68;56.11;101410.13;4984109;28;123753;-71
2023/05/15 06:55:35;;;;;;;36.80;24.65;;;;;;;16.80;55.87;101409.38;4999002;28;123793;-71
2023/05/15 06:58:03;;;;;;;39.88;25.98;;;;;;;16.93;56.05;101409.47;5008125;28;115208;-69
2023/05/15 07:00:30;;;;;;;37.85;25.33;;;;;;;17.08;55.77;101402.28;5001167;28;113997;-69
2023/05/15 07:02:57;;;;;;;39.45;26.40;;;;;;;17.22;55.70;101404.97;5012695;28;123695;-72
2023/05/15 07:05:25;;;;;;;36.88;25.42;;;;;;;17.38;55.25;101415.53;4983100;28;123493;-72
2023/05/15 07:07:52;;;;;;;40.17;26.27;;;;;;;17.51;54.77;101412.91;5002092;28;113292;-72
2023/05/15 07:10:19;;;;;;;36.15;26.60;;;;;;;17.62;54.46;101413.06;4985441;28;112976;-72
2023/05/15 07:12:46;;;;;;;34.47;25.98;;;;;;;17.68;54.06;101415.34;5009735;28;124977;-72
2023/05/15 07:15:16;;;;;;;39.75;26.20;;;;;;;17.74;54.06;101411.41;5008671;28;124382;-72
2023/05/15 07:17:43;;;;;;;37.83;26.88;;;;;;;17.80;53.91;101404.78;5002589;28;114807;-69
2023/05/15 07:20:10;;;;;;;40.13;27.08;;;;;;;17.91;53.92;101407.63;4997822;28;114621;-70
2023/05/15 07:22:38;;;;;;;39.13;27.80;;;;;;;18.01;53.79;101414.09;5007282;28;124913;-69
2023/05/15 07:25:21;;;;;;;38.63;27.42;;;;;;;18.13;53.73;101412.41;4988168;28;124002;-70
2023/05/15 07:27:49;;;;;;;39.58;28.02;;;;;;;18.24;53.63;101414.38;5010090;28;114608;-69
2023/05/15 07:30:16;;;;;;;41.38;29.50;;;;;;;18.38;53.20;101416.94;5010274;28;114317;-69
2023/05/15 07:32:43;;;;;;;39.35;27.92;;;;;;;18.48;52.71;101407.31;5009970;28;124035;-69
2023/05/15 07:35:10;;;;;;;43.83;29.90;;;;;;;18.57;52.63;101399.56;4994538;28;123859;-69
2023/05/15 07:37:38;;;;;;;40.08;30.45;;;;;;;18.60;52.39;101400.22;5010121;28;113847;-69
2023/05/15 07:40:06;;;;;;;38.50;28.88;;;;;;;18.68;52.24;101402.38;5008442;28;114357;-69
2023/05/15 07:42:33;;;;;;;40.55;28.02;;;;;;;18.78;51.88;101400.78;5010318;28;124716;-69
2023/05/15 07:45:00;;;;;;;38.13;27.95;;;;;;;18.93;51.56;101395.28;4995822;28;122798;-69
2023/05/15 07:47:27;;;;;;;36.25;26.60;;;;;;;19.05;51.53;101402.47;4997849;28;115614;-69
2023/05/15 07:49:55;;;;;;;34.45;26.23;;;;;;;19.13;51.23;101401.94;4988915;28;114954;-69
2023/05/15 07:52:22;;;;;;;36.72;26.98;;;;;;;19.22;51.43;101402.09;4979557;28;124307;-69
2023/05/15 07:54:49;;;;;;;38.55;27.08;;;;;;;19.36;51.40;101402.94;5006085;28;122730;-70
2023/05/15 07:57:16;;;;;;;33.97;25.27;;;;;;;19.47;51.17;101400.31;5009452;28;114464;-69
2023/05/15 07:59:44;;;;;;;31.38;25.15;;;;;;;19.57;51.12;101395.09;4991320;28;114078;-69
2023/05/15 08:02:11;;;;;;;31.88;24.52;;;;;;;19.69;50.67;101404.09;5024220;27;125199;-70
2023/05/15 08:04:38;;;;;;;30.08;23.58;;;;;;;19.75;50.44;101398.28;5008827;28;123971;-72
2023/05/15 08:07:06;;;;;;;31.15;23.38;;;;;;;19.82;50.40;101394.19;5009048;28;113839;-69
2023/05/15 08:09:33;;;;;;;30.70;23.02;;;;;;;19.89;50.26;101400.81;4989925;28;113557;-72
2023/05/15 08:12:20;;;;;;;29.63;23.50;;;;;;;19.94;49.80;101398.63;4999726;28;124638;-70
2023/05/15 08:14:52;;;;;;;31.08;21.83;;;;;;;19.99;49.95;101393.75;4993971;28;124215;-69
2023/05/15 08:17:19;;;;;;;27.65;21.83;;;;;;;20.02;49.30;101390.84;4990861;28;113015;-70
2023/05/15 08:19:47;;;;;;;27.02;21.85;;;;;;;20.07;49.41;101389.63;4990984;28;113057;-70
2023/05/15 08:22:14;;;;;;;24.40;19.48;;;;;;;20.16;49.74;101397.00;4991343;28;123727;-70
2023/05/15 08:24:42;;;;;;;23.38;19.05;;;;;;;20.28;49.34;101396.03;4980964;28;122949;-70
2023/05/15 08:27:09;;;;;;;24.20;19.52;;;;;;;20.37;49.22;101395.31;5005079;28;114914;-70
2023/05/15 08:29:37;;;;;;;23.52;18.65;;;;;;;20.46;49.42;101398.28;5009707;28;114060;-70
2023/05/15 08:32:07;;;;;;;22.27;18.08;;;;;;;20.59;48.94;101388.28;5008926;28;125064;-70
2023/05/15 08:34:34;;;;;;;18.85;16.55;;;;;;;20.69;48.48;101391.97;5008611;28;124399;-70
2023/05/15 08:37:04;;;;;;;22.88;16.83;;;;;;;20.72;48.12;101383.66;5008282;28;115167;-70
2023/05/15 08:39:31;;;;;;;23.75;17.40;;;;;;;20.72;47.79;101383.66;4994317;28;116119;-70
2023/05/15 08:42:13;;;;;;;21.10;16.45;;;;;;;20.73;47.50;101374.59;5011955;28;123824;-70
2023/05/15 08:44:41;;;;;;;21.40;16.58;;;;;;;20.76;47.85;101379.75;4980617;28;124206;-70
2023/05/15 08:47:08;;;;;;;21.17;15.90;;;;;;;20.75;47.69;101378.00;4970445;28;113212;-70
2023/05/15 08:49:51;;;;;;;24.10;18.02;;;;;;;20.74;47.16;101376.31;4993730;28;113849;-70
2023/05/15 08:52:19;;;;;;;19.95;16.83;;;;;;;20.70;47.25;101374.84;4991616;28;124006;-70
2023/05/15 08:54:47;;;;;;;22.20;17.05;;;;;;;20.67;47.27;101369.69;4976493;28;122052;-70
2023/05/15 08:57:16;;;;;;;21.25;17.02;;;;;;;20.66;46.91;101373.34;5014634;28;114347;-69
2023/05/15 08:59:44;;;;;;;19.35;16.70;;;;;;;20.64;46.89;101375.31;5019405;28;113544;-70
2023/05/15 09:02:12;;;;;;;22.83;16.90;;;;;;;20.64;46.72;101372.63;5012287;28;123845;-70
2023/05/15 09:04:39;;;;;;;22.73;17.05;;;;;;;20.63;46.80;101368.25;5012520;28;123981;-70
2023/05/15 09:07:08;;;;;;;22.70;18.13;;;;;;;20.63;46.41;101360.16;5012671;28;114644;-70
2023/05/15 09:09:36;;;;;;;24.23;19.10;;;;;;;20.67;46.94;101364.31;5012573;28;114360;-70
2023/05/15 09:12:04;;;;;;;25.83;21.15;;;;;;;20.77;46.84;101370.66;5012492;28;123857;-70
2023/05/15 09:14:31;;;;;;;26.10;20.17;;;;;;;20.86;47.19;101368.25;5011465;28;123891;-70
2023/05/15 09:16:58;;;;;;;27.77;20.55;;;;;;;20.96;47.30;101364.69;5012499;28;114313;-70
2023/05/15 09:19:26;;;;;;;24.77;19.40;;;;;;;21.08;46.95;101362.84;5012774;28;114701;-70
2023/05/15 09:21:53;;;;;;;25.77;19.65;;;;;;;21.17;46.71;101359.38;4995161;28;124086;-70
2023/05/15 09:24:25;;;;;;;27.55;21.10;;;;;;;21.26;46.40;101370.38;4994398;28;124306;-71
2023/05/15 09:27:03;;;;;;;26.80;21.05;;;;;;;21.33;46.36;101368.91;5010319;28;114990;-70
2023/05/15 09:29:32;;;;;;;27.35;21.35;;;;;;;21.41;46.51;101369.13;4978349;28;113826;-71
2023/05/15 09:32:03;;;;;;;28.98;21.15;;;;;;;21.52;46.42;101377.19;5012656;28;125239;-71
2023/05/15 09:34:36;;;;;;;26.45;21.38;;;;;;;21.62;45.65;101371.91;5027260;27;124413;-70
2023/05/15 09:37:06;;;;;;;27.15;21.25;;;;;;;21.72;45.80;101366.63;4978367;28;114546;-70
2023/05/15 09:39:40;;;;;;;27.60;22.67;;;;;;;21.84;45.86;101362.88;5005785;28;116482;-70
2023/05/15 09:42:14;;;;;;;30.65;21.45;;;;;;;21.97;45.76;101360.84;4977173;28;123811;-70
2023/05/15 09:44:44;;;;;;;24.53;19.50;;;;;;;22.10;45.05;101359.81;4998296;28;123138;-70
2023/05/15 09:47:12;;;;;;;27.70;21.95;;;;;;;22.15;45.16;101362.94;4980294;28;113295;-71
2023/05/15 09:49:43;;;;;;;30.35;22.05;;;;;;;22.18;45.09;101362.69;4992660;28;113229;-71
2023/05/15 09:52:11;;;;;;;26.45;20.80;;;;;;;22.24;45.16;101362.16;5011350;28;124100;-70
2023/05/15 09:54:38;;;;;;;25.58;21.13;;;;;;;22.31;44.72;101357.97;4991039;28;121883;-70
2023/05/15 09:57:08;;;;;;;24.15;19.33;;;;;;;22.34;44.38;101360.41;5008656;28;113590;-71
2023/05/15 09:59:47;;;;;;;25.90;19.35;;;;;;;22.39;44.29;101364.56;5014622;28;114365;-70
2023/05/15 10:02:31;;;;;;;24.67;20.25;;;;;;;22.41;44.38;101362.56;4984645;28;125509;-70
2023/05/15 10:04:58;;;;;;;26.45;21.70;;;;;;;22.46;44.35;101366.56;4990044;28;123537;-70
2023/05/15 10:07:27;;;;;;;25.80;20.88;;;;;;;22.49;44.46;101365.44;5011078;28;114390;-70
2023/05/15 10:09:55;;;;;;;26.65;21.75;;;;;;;22.55;44.47;101356.84;5011532;28;115450;-70
2023/05/15 10:12:23;;;;;;;25.30;20.98;;;;;;;22.62;44.34;101358.00;4990241;28;124515;-70
2023/05/15 10:14:52;;;;;;;27.17;22.02;;;;;;;22.72;44.57;101361.59;5035745;28;123332;-70
2023/05/15 10:17:20;;;;;;;29.45;22.58;;;;;;;22.84;44.60;101359.63;5004831;28;112872;-70
2023/05/15 10:19:50;;;;;;;28.90;21.67;;;;;;;22.92;44.12;101362.53;5010850;28;115222;-70
2023/05/15 10:22:31;;;;;;;28.77;22.88;;;;;;;22.89;43.60;101361.94;5016528;28;124156;-70
2023/05/15 10:25:35;;;;;;;27.65;23.30;;;;;;;22.84;43.75;101366.91;5002347;28;123728;-70
2023/05/15 10:28:02;;;;;;;28.05;22.55;;;;;;;22.79;43.85;101361.03;4983014;28;114654;-70
2023/05/15 10:30:31;;;;;;;26.90;20.60;;;;;;;22.76;43.52;101367.56;5011016;28;113520;-70
2023/05/15 10:32:59;;;;;;;20.52;17.27;;;;;;;22.71;42.93;101369.81;5002471;28;123903;-70
2023/05/15 10:35:27;;;;;;;23.48;17.30;;;;;;;22.67;42.71;101369.25;4992466;28;123578;-70
2023/05/15 10:37:58;;;;;;;19.95;16.95;;;;;;;22.67;42.59;101363.84;5007572;28;114217;-70
2023/05/15 10:40:27;;;;;;;20.45;17.98;;;;;;;22.68;42.80;101357.47;4973527;28;113399;-70
2023/05/15 10:42:55;;;;;;;22.45;18.15;;;;;;;22.73;42.79;101357.03;5002383;28;124411;-70
2023/05/15 10:45:23;;;;;;;20.65;15.95;;;;;;;22.77;42.29;101357.63;5009225;28;124209;-70
2023/05/15 10:47:51;;;;;;;22.42;18.35;;;;;;;22.72;42.33;101367.00;5010351;28;114161;-70
2023/05/15 10:50:18;;;;;;;22.92;17.88;;;;;;;22.68;42.48;101365.56;4992786;28;113253;-70
2023/05/15 10:52:50;;;;;;;25.35;18.55;;;;;;;22.64;42.64;101358.72;5012166;28;124085;-70
2023/05/15 10:55:18;;;;;;;26.65;20.83;;;;;;;22.59;42.75;101360.97;4986783;28;123769;-70
2023/05/15 10:57:48;;;;;;;25.98;20.10;;;;;;;22.53;42.95;101364.22;5020756;28;113696;-70
2023/05/15 11:00:21;;;;;;;24.02;20.08;;;;;;;22.48;42.93;101363.75;5011165;28;113774;-70
2023/05/15 11:02:52;;;;;;;26.23;21.30;;;;;;;22.42;42.82;101358.91;5009679;28;124340;-70
2023/05/15 11:05:20;;;;;;;25.60;21.33;;;;;;;22.29;43.12;101364.50;4997217;28;123655;-70
2023/05/15 11:08:17;;;;;;;26.63;20.67;;;;;;;22.14;43.16;101372.03;4977777;28;115668;-70
2023/05/15 11:10:44;;;;;;;26.10;20.70;;;;;;;22.04;43.47;101371.09;4979362;28;114159;-70
2023/05/15 11:13:11;;;;;;;24.08;19.75;;;;;;;21.94;43.69;101365.63;4987571;28;124050;-70